createdAt,value
2019-06-01T00:00:10.927Z,4.90
2019-06-01T00:01:02.022Z,5.20
2019-06-01T00:02:00.998Z,5.20
2019-06-01T00:03:01.058Z,5.40
2019-06-01T00:04:00.992Z,5.90
2019-06-01T00:05:00.974Z,5.00
2019-06-01T00:06:00.949Z,5.00
2019-06-01T00:07:00.943Z,5.10
2019-06-01T00:08:00.924Z,5.90
2019-06-01T00:09:00.942Z,5.40
2019-06-01T00:10:00.922Z,6.30
2019-06-01T00:11:00.900Z,5.80
2019-06-01T00:12:00.913Z,5.40
2019-06-01T00:13:00.879Z,5.20
2019-06-01T00:14:01.336Z,5.30
2019-06-01T00:15:00.869Z,5.70
2019-06-01T00:16:00.838Z,5.10
2019-06-01T00:17:00.848Z,5.30
2019-06-01T00:18:00.818Z,5.10
2019-06-01T00:19:00.885Z,5.40
2019-06-01T00:20:00.860Z,6.30
2019-06-01T00:21:00.804Z,5.70
2019-06-01T00:22:00.799Z,5.30
2019-06-01T00:23:00.779Z,5.40
2019-06-01T00:24:00.754Z,5.30
2019-06-01T00:25:00.815Z,6.40
2019-06-01T00:26:00.742Z,6.50
2019-06-01T00:27:00.729Z,6.30
2019-06-01T00:28:00.745Z,6.20
2019-06-01T00:29:00.719Z,5.40
2019-06-01T00:30:00.753Z,6.00
2019-06-01T00:31:00.671Z,5.90
2019-06-01T00:32:00.677Z,6.00
2019-06-01T00:33:00.677Z,5.60
2019-06-01T00:34:00.693Z,6.10
2019-06-01T00:35:00.650Z,6.50
2019-06-01T00:36:00.667Z,5.80
2019-06-01T00:37:00.607Z,6.10
2019-06-01T00:38:00.615Z,6.50
2019-06-01T00:39:00.622Z,6.70
2019-06-01T00:40:00.592Z,6.20
2019-06-01T00:41:00.616Z,5.90
2019-06-01T00:42:00.578Z,7.50
2019-06-01T00:43:00.569Z,6.50
2019-06-01T00:44:00.548Z,6.40
2019-06-01T00:45:00.546Z,6.90
2019-06-01T00:46:00.591Z,6.10
2019-06-01T00:47:00.503Z,6.80
2019-06-01T00:48:00.500Z,5.90
2019-06-01T00:49:00.505Z,7.80
2019-06-01T00:50:00.481Z,6.90
2019-06-01T00:51:00.485Z,7.10
2019-06-01T00:52:01.252Z,7.40
2019-06-01T00:53:00.438Z,6.80
2019-06-01T00:54:00.434Z,7.30
2019-06-01T00:55:00.456Z,6.60
2019-06-01T00:56:00.409Z,7.00
2019-06-01T00:57:00.428Z,6.60
2019-06-01T00:58:00.432Z,6.50
2019-06-01T00:59:00.368Z,7.40
2019-06-01T01:00:00.381Z,7.30
2019-06-01T01:01:00.375Z,6.70
2019-06-01T01:02:00.355Z,6.60
2019-06-01T01:03:00.401Z,6.30
2019-06-01T01:04:00.314Z,6.40
2019-06-01T01:05:00.303Z,6.70
2019-06-01T01:06:00.299Z,7.90
2019-06-01T01:07:00.301Z,6.90
2019-06-01T01:08:00.303Z,6.50
2019-06-01T01:09:00.293Z,6.90
2019-06-01T01:10:00.253Z,6.30
2019-06-01T01:11:00.238Z,6.40
2019-06-01T01:12:00.245Z,6.50
2019-06-01T01:13:00.226Z,6.30
2019-06-01T01:14:00.266Z,6.90
2019-06-01T01:15:00.228Z,6.80
2019-06-01T01:16:00.185Z,5.90
2019-06-01T01:17:00.251Z,6.40
2019-06-01T01:18:00.187Z,6.60
2019-06-01T01:19:00.198Z,7.30
2019-06-01T01:20:00.165Z,6.90
2019-06-01T01:21:00.164Z,6.20
2019-06-01T01:22:00.117Z,6.20
2019-06-01T01:23:00.124Z,5.90
2019-06-01T01:24:00.105Z,6.90
2019-06-01T01:25:00.133Z,6.60
2019-06-01T01:26:00.149Z,6.30
2019-06-01T01:27:00.099Z,7.00
2019-06-01T01:28:00.055Z,6.10
2019-06-01T01:29:00.063Z,6.80
2019-06-01T01:30:00.086Z,6.40
2019-06-01T01:31:12.502Z,6.20
2019-06-01T01:32:00.038Z,5.90
2019-06-01T01:33:00.004Z,6.20
2019-06-01T01:33:59.992Z,7.00
2019-06-01T01:34:59.989Z,6.30
2019-06-01T01:36:00.005Z,6.40
2019-06-01T01:36:59.977Z,6.30
2019-06-01T01:37:59.939Z,6.10
2019-06-01T01:38:59.933Z,5.70
2019-06-01T01:39:59.929Z,5.90
2019-06-01T01:41:00.325Z,6.20
2019-06-01T01:41:59.903Z,6.50
2019-06-01T01:42:59.909Z,5.80
2019-06-01T01:43:59.913Z,6.10
2019-06-01T01:45:00.740Z,6.10
2019-06-01T01:45:59.935Z,7.10
2019-06-01T01:46:59.874Z,6.00
2019-06-01T01:48:01.298Z,6.20
2019-06-01T01:48:59.847Z,6.40
2019-06-01T01:49:59.848Z,5.70
2019-06-01T01:50:59.800Z,6.00
2019-06-01T01:52:01.528Z,6.70
2019-06-01T01:52:59.812Z,6.60
2019-06-01T01:53:59.785Z,6.00
2019-06-01T01:54:59.785Z,5.90
2019-06-01T01:55:59.749Z,9.00
2019-06-01T01:56:59.809Z,6.10
2019-06-01T01:57:59.742Z,6.50
2019-06-01T01:58:59.722Z,9.10
2019-06-01T01:59:59.730Z,5.80
2019-06-01T02:01:00.365Z,6.30
2019-06-01T02:02:00.802Z,7.50
2019-06-01T02:03:00.087Z,6.40
2019-06-01T02:03:59.675Z,6.50
2019-06-01T02:04:59.949Z,6.70
2019-06-01T02:05:59.662Z,6.70
2019-06-01T02:07:00.313Z,7.20
2019-06-01T02:08:00.087Z,6.80
2019-06-01T02:08:59.618Z,7.00
2019-06-01T02:09:59.623Z,7.00
2019-06-01T02:10:59.645Z,7.30
2019-06-01T02:11:59.681Z,6.40
2019-06-01T02:12:59.735Z,7.20
2019-06-01T02:14:00.022Z,6.20
2019-06-01T02:14:59.796Z,6.80
2019-06-01T02:16:00.554Z,6.20
2019-06-01T02:17:00.283Z,6.50
2019-06-01T02:18:00.655Z,6.60
2019-06-01T02:19:00.556Z,6.20
2019-06-01T02:20:00.284Z,5.90
2019-06-01T02:21:00.469Z,6.40
2019-06-01T02:22:00.646Z,6.40
2019-06-01T02:23:00.894Z,6.30
2019-06-01T02:23:59.485Z,6.20
2019-06-01T02:24:59.888Z,6.50
2019-06-01T02:25:59.419Z,6.50
2019-06-01T02:26:59.462Z,6.90
2019-06-01T02:27:59.424Z,6.50
2019-06-01T02:28:59.606Z,6.40
2019-06-01T02:29:59.483Z,6.40
2019-06-01T02:31:00.013Z,6.70
2019-06-01T02:32:01.495Z,7.00
2019-06-01T02:33:00.263Z,6.10
2019-06-01T02:34:01.483Z,6.70
2019-06-01T02:35:00.236Z,6.60
2019-06-01T02:36:00.635Z,6.30
2019-06-01T02:37:00.271Z,6.70
2019-06-01T02:38:00.380Z,7.30
2019-06-01T02:39:01.071Z,7.10
2019-06-01T02:40:00.812Z,6.40
2019-06-01T02:41:01.010Z,6.50
2019-06-01T02:42:01.042Z,6.80
2019-06-01T02:42:59.747Z,7.00
2019-06-01T02:43:59.248Z,6.80
2019-06-01T02:44:59.294Z,6.80
2019-06-01T02:46:00.474Z,6.70
2019-06-01T02:46:59.569Z,7.00
2019-06-01T02:47:59.522Z,6.70
2019-06-01T02:48:59.773Z,7.00
2019-06-01T02:49:59.439Z,7.40
2019-06-01T02:50:59.905Z,7.10
2019-06-01T02:51:59.302Z,7.20
2019-06-01T02:52:59.455Z,7.10
2019-06-01T02:53:59.581Z,8.60
2019-06-01T02:54:59.637Z,7.30
2019-06-01T02:55:59.916Z,6.80
2019-06-01T02:57:00.204Z,7.50
2019-06-01T02:58:00.249Z,8.20
2019-06-01T02:59:00.261Z,7.50
2019-06-01T03:00:00.325Z,7.40
2019-06-01T03:00:59.129Z,7.50
2019-06-01T03:02:05.977Z,7.30
2019-06-01T03:02:59.039Z,7.40
2019-06-01T03:03:59.561Z,7.50
2019-06-01T03:04:59.094Z,7.30
2019-06-01T03:05:59.271Z,7.30
2019-06-01T03:06:59.529Z,8.10
2019-06-01T03:07:59.372Z,7.10
2019-06-01T03:08:59.800Z,7.20
2019-06-01T03:09:58.973Z,7.60
2019-06-01T03:10:59.680Z,7.30
2019-06-01T03:12:00.739Z,7.80
2019-06-01T03:13:00.056Z,7.80
2019-06-01T03:14:00.277Z,7.80
2019-06-01T03:14:58.939Z,7.80
2019-06-01T03:15:58.893Z,8.30
2019-06-01T03:16:59.771Z,7.80
2019-06-01T03:17:59.405Z,7.40
2019-06-01T03:18:59.643Z,8.00
2019-06-01T03:19:59.625Z,7.50
2019-06-01T03:20:59.535Z,7.90
2019-06-01T03:21:59.637Z,8.00
2019-06-01T03:22:59.623Z,8.00
2019-06-01T03:23:59.747Z,7.80
2019-06-01T03:24:59.781Z,8.30
2019-06-01T03:25:59.840Z,8.40
2019-06-01T03:26:59.743Z,8.90
2019-06-01T03:27:59.956Z,9.20
2019-06-01T03:29:00.056Z,8.80
2019-06-01T03:29:58.719Z,8.90
2019-06-01T03:30:58.714Z,8.20
2019-06-01T03:32:20.600Z,9.10
2019-06-01T03:32:58.740Z,9.90
2019-06-01T03:33:58.705Z,9.60
2019-06-01T03:34:58.719Z,8.90
2019-06-01T03:35:58.658Z,8.70
2019-06-01T03:36:58.644Z,8.20
2019-06-01T03:37:58.656Z,8.20
2019-06-01T03:38:59.914Z,8.30
2019-06-01T03:39:58.622Z,8.60
2019-06-01T03:40:58.617Z,8.60
2019-06-01T03:41:58.597Z,8.60
2019-06-01T03:42:58.591Z,8.00
2019-06-01T03:43:58.592Z,7.70
2019-06-01T03:44:58.604Z,8.70
2019-06-01T03:45:58.557Z,7.90
2019-06-01T03:46:58.540Z,8.30
2019-06-01T03:47:58.535Z,8.50
2019-06-01T03:48:58.511Z,8.90
2019-06-01T03:49:58.553Z,8.30
2019-06-01T03:50:58.488Z,8.10
2019-06-01T03:51:58.498Z,8.50
2019-06-01T03:52:58.466Z,8.80
2019-06-01T03:53:58.475Z,8.80
2019-06-01T03:54:58.483Z,8.20
2019-06-01T03:55:58.457Z,8.70
2019-06-01T03:56:58.427Z,8.30
2019-06-01T03:57:58.421Z,8.40
2019-06-01T03:58:58.403Z,9.00
2019-06-01T03:59:58.400Z,8.40
2019-06-01T04:00:58.452Z,8.60
2019-06-01T04:01:58.389Z,8.70
2019-06-01T04:02:58.365Z,8.30
2019-06-01T04:03:58.358Z,8.60
2019-06-01T04:04:58.366Z,8.60
2019-06-01T04:05:58.382Z,8.20
2019-06-01T04:06:58.699Z,8.30
2019-06-01T04:07:58.327Z,8.40
2019-06-01T04:08:58.298Z,8.30
2019-06-01T04:09:58.292Z,8.30
2019-06-01T04:10:58.282Z,8.50
2019-06-01T04:11:58.329Z,8.40
2019-06-01T04:12:58.268Z,8.70
2019-06-01T04:13:58.269Z,8.80
2019-06-01T04:14:58.234Z,8.40
2019-06-01T04:15:58.236Z,8.10
2019-06-01T04:16:58.207Z,8.70
2019-06-01T04:17:58.213Z,8.20
2019-06-01T04:18:58.200Z,8.10
2019-06-01T04:19:58.169Z,9.20
2019-06-01T04:20:58.171Z,8.50
2019-06-01T04:21:58.175Z,8.70
2019-06-01T04:22:58.185Z,8.50
2019-06-01T04:23:58.143Z,8.20
2019-06-01T04:24:58.143Z,8.50
2019-06-01T04:25:58.116Z,8.20
2019-06-01T04:26:58.103Z,8.30
2019-06-01T04:27:58.114Z,8.00
2019-06-01T04:28:58.121Z,8.50
2019-06-01T04:29:58.081Z,8.40
2019-06-01T04:30:58.081Z,8.30
2019-06-01T04:31:58.102Z,8.80
2019-06-01T04:32:58.036Z,8.50
2019-06-01T04:33:58.050Z,8.60
2019-06-01T04:34:58.023Z,8.40
2019-06-01T04:35:58.063Z,8.30
2019-06-01T04:36:58.068Z,8.70
2019-06-01T04:37:58.033Z,8.20
2019-06-01T04:38:57.981Z,8.30
2019-06-01T04:39:57.980Z,8.10
2019-06-01T04:40:57.972Z,7.80
2019-06-01T04:41:57.990Z,7.60
2019-06-01T04:42:57.951Z,8.00
2019-06-01T04:43:57.960Z,8.10
2019-06-01T04:44:57.919Z,8.20
2019-06-01T04:45:57.884Z,8.00
2019-06-01T04:46:57.936Z,8.30
2019-06-01T04:47:57.882Z,8.50
2019-06-01T04:48:57.851Z,8.40
2019-06-01T04:49:57.851Z,8.50
2019-06-01T04:50:57.856Z,8.70
2019-06-01T04:51:57.819Z,8.00
2019-06-01T04:52:57.868Z,7.80
2019-06-01T04:53:57.818Z,7.90
2019-06-01T04:54:57.830Z,7.60
2019-06-01T04:55:57.792Z,7.90
2019-06-01T04:56:57.792Z,8.30
2019-06-01T04:57:57.759Z,7.80
2019-06-01T04:58:57.770Z,7.40
2019-06-01T04:59:57.738Z,7.60
2019-06-01T05:00:57.772Z,7.70
2019-06-01T05:01:57.725Z,8.20
2019-06-01T05:03:05.478Z,7.90
2019-06-01T05:03:57.737Z,7.90
2019-06-01T05:04:57.691Z,7.70
2019-06-01T05:05:57.672Z,8.10
2019-06-01T05:06:57.663Z,7.80
2019-06-01T05:07:57.663Z,7.70
2019-06-01T05:08:57.636Z,7.70
2019-06-01T05:09:57.676Z,7.80
2019-06-01T05:10:57.643Z,7.60
2019-06-01T05:11:57.609Z,7.60
2019-06-01T05:12:57.599Z,7.80
2019-06-01T05:13:57.605Z,8.40
2019-06-01T05:14:57.610Z,8.70
2019-06-01T05:15:57.572Z,7.60
2019-06-01T05:16:57.549Z,7.90
2019-06-01T05:17:57.551Z,7.50
2019-06-01T05:18:57.527Z,6.90
2019-06-01T05:19:57.546Z,7.60
2019-06-01T05:20:57.543Z,7.40
2019-06-01T05:21:57.504Z,7.60
2019-06-01T05:22:57.485Z,7.30
2019-06-01T05:23:57.487Z,7.50
2019-06-01T05:24:57.470Z,7.20
2019-06-01T05:25:57.531Z,7.10
2019-06-01T05:26:57.483Z,7.40
2019-06-01T05:27:57.483Z,7.60
2019-06-01T05:28:57.508Z,7.10
2019-06-01T05:29:57.424Z,7.40
2019-06-01T05:30:57.407Z,7.30
2019-06-01T05:31:57.413Z,7.20
2019-06-01T05:32:57.418Z,7.80
2019-06-01T05:33:57.378Z,7.40
2019-06-01T05:34:57.367Z,8.90
2019-06-01T05:35:57.340Z,7.50
2019-06-01T05:36:57.380Z,8.00
2019-06-01T05:37:57.334Z,7.60
2019-06-01T05:38:57.358Z,7.60
2019-06-01T05:39:57.298Z,7.80
2019-06-01T05:40:57.304Z,7.40
2019-06-01T05:41:57.310Z,6.90
2019-06-01T05:42:57.286Z,7.20
2019-06-01T05:43:57.280Z,7.80
2019-06-01T05:44:57.249Z,7.10
2019-06-01T05:45:57.260Z,9.60
2019-06-01T05:46:57.247Z,7.60
2019-06-01T05:47:57.276Z,7.10
2019-06-01T05:48:57.223Z,7.00
2019-06-01T05:49:57.224Z,7.30
2019-06-01T05:50:57.183Z,7.80
2019-06-01T05:51:57.176Z,7.80
2019-06-01T05:52:57.176Z,7.90
2019-06-01T05:53:57.658Z,7.60
2019-06-01T05:54:57.152Z,7.90
2019-06-01T05:55:57.146Z,8.50
2019-06-01T05:56:57.140Z,7.00
2019-06-01T05:57:57.113Z,7.00
2019-06-01T05:58:57.215Z,7.20
2019-06-01T05:59:57.096Z,6.90
2019-06-01T06:00:57.095Z,7.10
2019-06-01T06:01:57.083Z,6.70
2019-06-01T06:02:57.046Z,7.10
2019-06-01T06:03:57.036Z,7.10
2019-06-01T06:04:57.053Z,7.30
2019-06-01T06:05:57.034Z,6.90
2019-06-01T06:06:57.025Z,6.90
2019-06-01T06:07:57.019Z,6.80
2019-06-01T06:08:56.980Z,6.80
2019-06-01T06:09:57.176Z,7.20
2019-06-01T06:10:56.978Z,7.50
2019-06-01T06:11:56.962Z,6.40
2019-06-01T06:12:56.968Z,7.10
2019-06-01T06:13:56.940Z,6.90
2019-06-01T06:14:56.916Z,8.00
2019-06-01T06:15:56.972Z,6.30
2019-06-01T06:16:56.913Z,6.40
2019-06-01T06:17:56.901Z,7.10
2019-06-01T06:18:56.894Z,6.80
2019-06-01T06:19:56.876Z,7.20
2019-06-01T06:20:56.903Z,7.20
2019-06-01T06:21:56.850Z,7.20
2019-06-01T06:22:56.850Z,7.20
2019-06-01T06:23:56.838Z,6.70
2019-06-01T06:24:56.851Z,7.60
2019-06-01T06:25:56.797Z,7.40
2019-06-01T06:26:56.868Z,6.60
2019-06-01T06:27:56.785Z,6.20
2019-06-01T06:28:56.771Z,6.70
2019-06-01T06:29:56.780Z,6.80
2019-06-01T06:30:56.774Z,7.30
2019-06-01T06:31:56.814Z,6.20
2019-06-01T06:32:56.722Z,6.40
2019-06-01T06:33:57.233Z,6.70
2019-06-01T06:34:56.716Z,6.40
2019-06-01T06:35:56.719Z,6.60
2019-06-01T06:36:56.714Z,6.20
2019-06-01T06:37:56.715Z,6.20
2019-06-01T06:38:56.662Z,6.40
2019-06-01T06:39:56.664Z,6.30
2019-06-01T06:40:56.638Z,7.10
2019-06-01T06:41:56.642Z,6.20
2019-06-01T06:42:56.687Z,6.40
2019-06-01T06:43:56.611Z,6.20
2019-06-01T06:44:56.598Z,6.60
2019-06-01T06:45:56.612Z,7.10
2019-06-01T06:46:56.584Z,5.90
2019-06-01T06:47:56.584Z,6.30
2019-06-01T06:48:56.598Z,6.00
2019-06-01T06:49:56.535Z,6.00
2019-06-01T06:50:56.536Z,5.90
2019-06-01T06:51:56.548Z,6.00
2019-06-01T06:52:56.518Z,6.40
2019-06-01T06:53:56.568Z,6.90
2019-06-01T06:54:56.489Z,5.90
2019-06-01T06:55:56.470Z,6.40
2019-06-01T06:56:56.465Z,7.80
2019-06-01T06:57:56.481Z,6.60
2019-06-01T06:58:56.495Z,6.30
2019-06-01T06:59:56.454Z,6.80
2019-06-01T07:00:56.454Z,6.30
2019-06-01T07:01:56.407Z,6.00
2019-06-01T07:02:56.409Z,5.90
2019-06-01T07:04:09.407Z,6.30
2019-06-01T07:04:56.426Z,6.00
2019-06-01T07:05:56.411Z,6.20
2019-06-01T07:06:56.362Z,6.40
2019-06-01T07:07:56.341Z,6.30
2019-06-01T07:08:56.347Z,6.50
2019-06-01T07:09:56.361Z,6.10
2019-06-01T07:10:56.367Z,6.20
2019-06-01T07:11:56.339Z,6.50
2019-06-01T07:12:56.336Z,7.40
2019-06-01T07:13:56.293Z,6.50
2019-06-01T07:14:56.294Z,6.30
2019-06-01T07:15:56.302Z,6.90
2019-06-01T07:16:56.285Z,5.70
2019-06-01T07:17:56.265Z,7.60
2019-06-01T07:18:56.248Z,6.30
2019-06-01T07:19:56.221Z,6.90
2019-06-01T07:20:56.312Z,9.50
2019-06-01T07:21:56.239Z,5.60
2019-06-01T07:22:56.224Z,6.70
2019-06-01T07:23:56.210Z,6.40
2019-06-01T07:24:56.163Z,6.20
2019-06-01T07:25:56.166Z,5.80
2019-06-01T07:26:56.268Z,5.60
2019-06-01T07:27:56.142Z,6.60
2019-06-01T07:28:56.143Z,7.00
2019-06-01T07:29:56.157Z,6.50
2019-06-01T07:30:56.096Z,6.30
2019-06-01T07:31:56.091Z,6.80
2019-06-01T07:32:56.103Z,6.20
2019-06-01T07:33:56.074Z,6.50
2019-06-01T07:34:56.073Z,7.50
2019-06-01T07:35:56.089Z,6.10
2019-06-01T07:36:56.039Z,5.80
2019-06-01T07:37:56.102Z,7.60
2019-06-01T07:38:56.040Z,6.50
2019-06-01T07:39:56.014Z,6.70
2019-06-01T07:40:56.008Z,6.30
2019-06-01T07:41:56.016Z,6.20
2019-06-01T07:42:55.978Z,6.20
2019-06-01T07:43:56.047Z,6.50
2019-06-01T07:44:55.983Z,6.20
2019-06-01T07:45:55.952Z,6.30
2019-06-01T07:46:55.957Z,6.50
2019-06-01T07:47:55.914Z,6.40
2019-06-01T07:48:55.969Z,6.20
2019-06-01T07:49:55.942Z,6.10
2019-06-01T07:50:55.920Z,6.80
2019-06-01T07:51:55.956Z,6.40
2019-06-01T07:52:55.884Z,6.90
2019-06-01T07:53:55.899Z,6.40
2019-06-01T07:54:55.889Z,6.40
2019-06-01T07:55:55.901Z,6.40
2019-06-01T07:56:55.908Z,5.60
2019-06-01T07:57:55.824Z,6.60
2019-06-01T07:58:55.822Z,5.60
2019-06-01T07:59:55.783Z,6.40
2019-06-01T08:00:55.842Z,6.50
2019-06-01T08:01:55.793Z,6.30
2019-06-01T08:02:55.751Z,6.00
2019-06-01T08:03:55.760Z,6.70
2019-06-01T08:04:55.763Z,7.00
2019-06-01T08:05:55.772Z,6.10
2019-06-01T08:06:55.705Z,5.60
2019-06-01T08:07:55.725Z,6.50
2019-06-01T08:08:55.691Z,5.90
2019-06-01T08:09:55.697Z,5.50
2019-06-01T08:10:55.702Z,5.40
2019-06-01T08:11:55.709Z,5.40
2019-06-01T08:12:55.640Z,5.40
2019-06-01T08:13:55.646Z,6.20
2019-06-01T08:14:55.626Z,5.30
2019-06-01T08:15:55.631Z,5.50
2019-06-01T08:16:55.668Z,6.50
2019-06-01T08:17:55.592Z,6.30
2019-06-01T08:18:55.574Z,5.90
2019-06-01T08:19:55.586Z,6.80
2019-06-01T08:20:55.560Z,6.20
2019-06-01T08:21:55.647Z,5.60
2019-06-01T08:22:55.568Z,5.80
2019-06-01T08:23:55.529Z,5.50
2019-06-01T08:24:55.530Z,5.60
2019-06-01T08:25:55.528Z,6.40
2019-06-01T08:26:55.501Z,5.30
2019-06-01T08:27:55.533Z,5.90
2019-06-01T08:28:55.465Z,5.80
2019-06-01T08:29:55.453Z,5.90
2019-06-01T08:30:55.452Z,5.80
2019-06-01T08:31:56.036Z,5.70
2019-06-01T08:32:55.431Z,5.60
2019-06-01T08:33:55.444Z,5.40
2019-06-01T08:35:07.789Z,6.60
2019-06-01T08:35:55.387Z,5.80
2019-06-01T08:36:55.421Z,6.20
2019-06-01T08:37:55.378Z,4.90
2019-06-01T08:38:55.407Z,5.20
2019-06-01T08:39:58.994Z,5.50
2019-06-01T08:40:55.338Z,5.10
2019-06-01T08:41:55.330Z,4.80
2019-06-01T08:42:55.313Z,4.70
2019-06-01T08:43:55.328Z,4.50
2019-06-01T08:44:55.322Z,4.30
2019-06-01T08:45:55.299Z,3.90
2019-06-01T08:46:55.274Z,4.20
2019-06-01T08:47:55.269Z,4.10
2019-06-01T08:48:55.246Z,5.20
2019-06-01T08:49:55.589Z,4.10
2019-06-01T08:50:55.229Z,4.00
2019-06-01T08:51:55.224Z,3.80
2019-06-01T08:52:55.262Z,4.20
2019-06-01T08:53:55.205Z,4.10
2019-06-01T08:54:55.245Z,3.80
2019-06-01T08:55:55.194Z,4.10
2019-06-01T08:56:55.174Z,3.90
2019-06-01T08:57:55.172Z,3.80
2019-06-01T08:58:55.140Z,4.30
2019-06-01T08:59:55.124Z,3.70
2019-06-01T09:00:55.188Z,3.60
2019-06-01T09:01:55.134Z,3.40
2019-06-01T09:02:55.104Z,3.70
2019-06-01T09:03:55.104Z,3.60
2019-06-01T09:04:55.074Z,3.30
2019-06-01T09:05:55.063Z,4.10
2019-06-01T09:06:55.073Z,4.60
2019-06-01T09:07:55.054Z,4.50
2019-06-01T09:08:55.033Z,3.90
2019-06-01T09:09:55.031Z,6.00
2019-06-01T09:10:55.017Z,4.00
2019-06-01T09:11:55.059Z,3.60
2019-06-01T09:12:55.012Z,4.00
2019-06-01T09:13:54.973Z,3.40
2019-06-01T09:14:54.976Z,3.30
2019-06-01T09:15:54.950Z,3.10
2019-06-01T09:16:54.993Z,3.50
2019-06-01T09:17:54.991Z,3.30
2019-06-01T09:18:54.938Z,3.50
2019-06-01T09:19:54.996Z,3.40
2019-06-01T09:20:54.922Z,3.20
2019-06-01T09:21:54.888Z,3.60
2019-06-01T09:22:54.889Z,4.20
2019-06-01T09:23:54.936Z,4.00
2019-06-01T09:24:54.882Z,3.70
2019-06-01T09:25:54.847Z,4.00
2019-06-01T09:26:54.843Z,3.60
2019-06-01T09:27:54.823Z,4.50
2019-06-01T09:28:54.818Z,3.40
2019-06-01T09:29:54.823Z,4.30
2019-06-01T09:30:54.817Z,4.00
2019-06-01T09:31:54.780Z,2.80
2019-06-01T09:32:54.785Z,3.00
2019-06-01T09:33:54.760Z,3.50
2019-06-01T09:34:54.798Z,3.60
2019-06-01T09:35:56.349Z,3.30
2019-06-01T09:36:55.629Z,2.70
2019-06-01T09:37:54.718Z,2.70
2019-06-01T09:38:54.718Z,2.50
2019-06-01T09:39:54.740Z,2.70
2019-06-01T09:40:54.760Z,2.80
2019-06-01T09:41:54.685Z,2.40
2019-06-01T09:42:54.659Z,2.70
2019-06-01T09:43:54.656Z,3.90
2019-06-01T09:44:54.661Z,4.10
2019-06-01T09:45:54.665Z,2.60
2019-06-01T09:46:54.676Z,3.10
2019-06-01T09:47:54.615Z,3.70
2019-06-01T09:48:54.594Z,3.00
2019-06-01T09:49:54.594Z,3.20
2019-06-01T09:50:54.601Z,3.10
2019-06-01T09:51:54.658Z,2.90
2019-06-01T09:52:54.562Z,3.60
2019-06-01T09:53:54.569Z,2.90
2019-06-01T09:54:54.571Z,3.30
2019-06-01T09:55:54.581Z,2.90
2019-06-01T09:56:54.532Z,3.20
2019-06-01T09:57:54.545Z,3.10
2019-06-01T09:58:54.500Z,3.10
2019-06-01T09:59:54.506Z,4.20
2019-06-01T10:00:54.471Z,3.20
2019-06-01T10:01:54.471Z,2.90
2019-06-01T10:02:54.526Z,3.20
2019-06-01T10:03:54.439Z,3.10
2019-06-01T10:04:54.436Z,3.10
2019-06-01T10:06:01.958Z,3.30
2019-06-01T10:06:54.402Z,3.10
2019-06-01T10:07:54.419Z,3.00
2019-06-01T10:08:54.462Z,2.70
2019-06-01T10:09:54.374Z,3.40
2019-06-01T10:10:54.382Z,2.70
2019-06-01T10:11:54.351Z,2.70
2019-06-01T10:12:54.347Z,3.80
2019-06-01T10:13:54.361Z,2.50
2019-06-01T10:14:54.395Z,2.70
2019-06-01T10:15:54.315Z,2.70
2019-06-01T10:16:54.306Z,2.80
2019-06-01T10:17:54.379Z,2.40
2019-06-01T10:18:54.315Z,2.70
2019-06-01T10:19:54.320Z,2.70
2019-06-01T10:20:54.297Z,3.30
2019-06-01T10:21:54.252Z,2.50
2019-06-01T10:22:54.250Z,2.50
2019-06-01T10:23:54.227Z,2.60
2019-06-01T10:24:54.214Z,2.50
2019-06-01T10:25:54.268Z,3.10
2019-06-01T10:26:54.204Z,2.70
2019-06-01T10:27:54.194Z,2.70
2019-06-01T10:28:54.161Z,2.60
2019-06-01T10:29:54.166Z,2.60
2019-06-01T10:30:54.144Z,2.70
2019-06-01T10:31:54.206Z,2.50
2019-06-01T10:32:54.124Z,2.70
2019-06-01T10:33:54.166Z,3.60
2019-06-01T10:34:54.100Z,2.80
2019-06-01T10:35:54.105Z,2.60
2019-06-01T10:36:54.152Z,2.80
2019-06-01T10:37:54.088Z,2.30
2019-06-01T10:38:54.067Z,2.70
2019-06-01T10:39:54.089Z,2.80
2019-06-01T10:40:54.036Z,2.90
2019-06-01T10:41:54.027Z,3.40
2019-06-01T10:42:54.093Z,2.90
2019-06-01T10:43:54.017Z,3.00
2019-06-01T10:44:54.007Z,2.80
2019-06-01T10:45:53.996Z,2.70
2019-06-01T10:46:53.974Z,2.90
2019-06-01T10:47:54.049Z,2.70
2019-06-01T10:48:53.955Z,3.00
2019-06-01T10:49:53.955Z,2.90
2019-06-01T10:50:53.960Z,2.90
2019-06-01T10:51:53.932Z,2.70
2019-06-01T10:52:53.915Z,2.60
2019-06-01T10:53:53.921Z,2.60
2019-06-01T10:54:53.895Z,2.40
2019-06-01T10:55:53.890Z,2.30
2019-06-01T10:56:53.896Z,2.60
2019-06-01T10:57:53.872Z,3.20
2019-06-01T10:59:00.094Z,2.30
2019-06-01T10:59:54.843Z,2.00
2019-06-01T11:00:53.828Z,2.30
2019-06-01T11:01:53.829Z,2.50
2019-06-01T11:02:53.833Z,2.20
2019-06-01T11:03:53.793Z,2.20
2019-06-01T11:04:53.898Z,2.40
2019-06-01T11:05:53.762Z,2.10
2019-06-01T11:06:53.770Z,2.40
2019-06-01T11:07:53.763Z,2.40
2019-06-01T11:08:53.749Z,2.10
2019-06-01T11:09:53.725Z,2.10
2019-06-01T11:10:53.846Z,2.20
2019-06-01T11:11:53.699Z,2.40
2019-06-01T11:12:53.704Z,2.30
2019-06-01T11:13:53.705Z,2.10
2019-06-01T11:14:53.680Z,2.00
2019-06-01T11:15:53.712Z,3.30
2019-06-01T11:16:56.585Z,2.70
2019-06-01T11:17:53.637Z,2.80
2019-06-01T11:18:53.635Z,2.80
2019-06-01T11:19:53.638Z,2.50
2019-06-01T11:20:53.620Z,2.40
2019-06-01T11:21:53.652Z,2.20
2019-06-01T11:22:53.603Z,2.40
2019-06-01T11:23:53.576Z,2.70
2019-06-01T11:24:53.574Z,2.60
2019-06-01T11:25:53.575Z,2.70
2019-06-01T11:26:53.581Z,2.50
2019-06-01T11:27:53.588Z,3.20
2019-06-01T11:28:53.539Z,2.50
2019-06-01T11:29:53.527Z,2.40
2019-06-01T11:30:53.508Z,2.10
2019-06-01T11:31:53.563Z,2.40
2019-06-01T11:32:53.531Z,2.20
2019-06-01T11:33:53.473Z,2.20
2019-06-01T11:34:53.478Z,2.10
2019-06-01T11:35:53.447Z,2.00
2019-06-01T11:37:05.073Z,2.50
2019-06-01T11:37:54.477Z,2.40
2019-06-01T11:38:53.430Z,3.10
2019-06-01T11:39:53.412Z,2.20
2019-06-01T11:40:53.420Z,2.60
2019-06-01T11:41:53.388Z,2.30
2019-06-01T11:42:53.391Z,2.50
2019-06-01T11:43:53.381Z,2.40
2019-06-01T11:44:53.386Z,2.20
2019-06-01T11:45:53.404Z,2.60
2019-06-01T11:46:53.350Z,2.40
2019-06-01T11:47:53.346Z,2.50
2019-06-01T11:48:53.322Z,3.00
2019-06-01T11:49:53.325Z,2.50
2019-06-01T11:50:53.324Z,2.50
2019-06-01T11:51:53.350Z,2.50
2019-06-01T11:52:53.271Z,2.50
2019-06-01T11:53:53.284Z,2.60
2019-06-01T11:54:53.269Z,2.50
2019-06-01T11:55:53.256Z,2.50
2019-06-01T11:56:53.275Z,2.40
2019-06-01T11:57:53.227Z,2.10
2019-06-01T11:58:53.218Z,2.60
2019-06-01T11:59:53.197Z,2.10
2019-06-01T12:00:53.208Z,2.40
2019-06-01T12:01:53.199Z,2.10
2019-06-01T12:02:53.201Z,2.60
2019-06-01T12:03:53.146Z,2.20
2019-06-01T12:04:53.147Z,2.40
2019-06-01T12:05:53.138Z,2.20
2019-06-01T12:06:53.131Z,2.20
2019-06-01T12:07:53.173Z,2.10
2019-06-01T12:08:53.088Z,2.10
2019-06-01T12:09:53.078Z,2.10
2019-06-01T12:10:53.089Z,2.30
2019-06-01T12:11:53.061Z,2.30
2019-06-01T12:12:53.068Z,2.20
2019-06-01T12:13:53.074Z,2.10
2019-06-01T12:14:53.025Z,2.40
2019-06-01T12:15:53.022Z,2.10
2019-06-01T12:16:53.025Z,2.00
2019-06-01T12:17:53.002Z,2.10
2019-06-01T12:18:53.048Z,2.30
2019-06-01T12:19:53.004Z,2.40
2019-06-01T12:20:52.964Z,2.20
2019-06-01T12:21:52.973Z,1.90
2019-06-01T12:22:52.971Z,2.70
2019-06-01T12:23:52.940Z,2.00
2019-06-01T12:24:52.986Z,2.90
2019-06-01T12:25:52.946Z,2.10
2019-06-01T12:26:52.898Z,2.20
2019-06-01T12:27:52.887Z,2.10
2019-06-01T12:28:52.901Z,2.30
2019-06-01T12:29:52.917Z,3.40
2019-06-01T12:30:52.874Z,2.20
2019-06-01T12:31:52.886Z,3.10
2019-06-01T12:32:52.836Z,2.40
2019-06-01T12:33:52.824Z,2.30
2019-06-01T12:34:52.832Z,2.30
2019-06-01T12:35:52.852Z,2.20
2019-06-01T12:36:52.809Z,2.00
2019-06-01T12:38:05.369Z,1.90
2019-06-01T12:38:53.799Z,2.10
2019-06-01T12:39:54.391Z,2.00
2019-06-01T12:40:52.798Z,1.90
2019-06-01T12:41:52.816Z,2.10
2019-06-01T12:42:52.756Z,1.90
2019-06-01T12:43:52.716Z,2.40
2019-06-01T12:44:52.708Z,2.10
2019-06-01T12:46:06.657Z,2.20
2019-06-01T12:46:53.071Z,2.00
2019-06-01T12:47:57.731Z,3.40
2019-06-01T12:48:53.661Z,3.50
2019-06-01T12:49:52.801Z,2.20
2019-06-01T12:50:52.667Z,1.90
2019-06-01T12:51:53.149Z,1.90
2019-06-01T12:52:52.837Z,2.00
2019-06-01T12:53:52.848Z,2.10
2019-06-01T12:54:53.112Z,2.20
2019-06-01T12:55:53.055Z,2.00
2019-06-01T12:56:53.070Z,1.90
2019-06-01T12:57:52.648Z,2.80
2019-06-01T12:58:52.592Z,2.20
2019-06-01T12:59:53.160Z,2.00
2019-06-01T13:00:52.606Z,2.10
2019-06-01T13:01:52.527Z,1.90
2019-06-01T13:03:03.303Z,2.10
2019-06-01T13:03:53.519Z,2.10
2019-06-01T13:04:53.120Z,2.60
2019-06-01T13:05:52.510Z,2.00
2019-06-01T13:06:54.058Z,2.00
2019-06-01T13:08:01.697Z,2.00
2019-06-01T13:08:53.044Z,1.90
2019-06-01T13:09:52.874Z,1.90
2019-06-01T13:10:52.433Z,2.10
2019-06-01T13:11:52.437Z,2.30
2019-06-01T13:12:52.451Z,2.10
2019-06-01T13:13:52.447Z,3.30
2019-06-01T13:14:52.390Z,2.00
2019-06-01T13:15:52.395Z,2.00
2019-06-01T13:17:04.254Z,1.90
2019-06-01T13:17:53.360Z,1.90